createdAt,value
2023-02-19T00:02:28.466Z,67.18
2023-02-19T00:05:03.309Z,67.29
2023-02-19T00:07:38.014Z,67.35
2023-02-19T00:10:12.106Z,67.41
2023-02-19T00:12:45.757Z,67.49
2023-02-19T00:15:19.701Z,67.53
2023-02-19T00:17:53.207Z,67.58
2023-02-19T00:20:26.907Z,67.63
2023-02-19T00:23:00.203Z,67.73
2023-02-19T00:25:33.641Z,67.75
2023-02-19T00:28:09.575Z,67.77
2023-02-19T00:30:43.031Z,67.85
2023-02-19T00:33:17.079Z,67.88
2023-02-19T00:35:50.630Z,67.98
2023-02-19T00:38:23.726Z,68.09
2023-02-19T00:40:57.336Z,68.17
2023-02-19T00:43:31.314Z,68.16
2023-02-19T00:46:04.823Z,68.18
2023-02-19T00:48:38.364Z,68.18
2023-02-19T00:51:12.192Z,68.28
2023-02-19T00:53:46.463Z,68.24
2023-02-19T00:56:19.951Z,68.38
2023-02-19T00:58:53.528Z,68.47
2023-02-19T01:01:27.150Z,68.48
2023-02-19T01:04:00.419Z,68.56
2023-02-19T01:06:34.830Z,68.65
2023-02-19T01:09:09.101Z,68.72
2023-02-19T01:11:42.662Z,68.79
2023-02-19T01:14:16.564Z,68.80
2023-02-19T01:16:50.099Z,68.78
2023-02-19T01:19:23.408Z,68.81
2023-02-19T01:21:56.942Z,68.60
2023-02-19T01:24:30.608Z,68.58
2023-02-19T01:27:03.890Z,68.69
2023-02-19T01:29:37.238Z,68.78
2023-02-19T01:32:11.629Z,68.74
2023-02-19T01:34:45.164Z,68.77
2023-02-19T01:37:18.702Z,68.67
2023-02-19T01:39:52.017Z,68.58
2023-02-19T01:42:25.590Z,68.65
2023-02-19T01:45:33.444Z,68.76
2023-02-19T01:48:11.512Z,68.77
2023-02-19T01:50:48.358Z,68.86
2023-02-19T01:53:25.366Z,68.85
2023-02-19T01:56:01.237Z,68.98
2023-02-19T01:58:37.357Z,69.06
2023-02-19T02:01:12.266Z,69.04
2023-02-19T02:03:49.043Z,68.91
2023-02-19T02:06:25.987Z,68.68
2023-02-19T02:09:18.359Z,68.61
2023-02-19T02:11:54.724Z,68.69
2023-02-19T02:14:30.913Z,68.92
2023-02-19T02:17:08.086Z,69.01
2023-02-19T02:19:55.125Z,69.10
2023-02-19T02:22:30.960Z,68.82
2023-02-19T02:25:39.519Z,68.83
2023-02-19T02:28:32.387Z,68.70
2023-02-19T02:31:09.607Z,68.95
2023-02-19T02:33:46.014Z,69.08
2023-02-19T02:36:22.364Z,68.94
2023-02-19T02:38:57.011Z,68.82
2023-02-19T02:41:30.950Z,68.71
2023-02-19T02:44:07.012Z,68.87
2023-02-19T02:46:43.572Z,68.89
2023-02-19T02:49:20.172Z,68.72
2023-02-19T02:51:55.963Z,68.68
2023-02-19T02:54:48.198Z,68.52
2023-02-19T02:57:22.185Z,68.35
2023-02-19T02:59:57.928Z,68.55
2023-02-19T03:02:33.131Z,68.80
2023-02-19T03:05:26.576Z,68.81
2023-02-19T03:08:04.198Z,68.92
2023-02-19T03:10:40.575Z,68.88
2023-02-19T03:13:33.782Z,69.12
2023-02-19T03:16:27.723Z,69.14
2023-02-19T03:19:21.349Z,69.19
2023-02-19T03:24:59.460Z,69.27
2023-02-19T03:27:37.566Z,69.22
2023-02-19T03:30:16.037Z,69.19
2023-02-19T03:32:52.578Z,69.33
2023-02-19T03:35:29.350Z,69.10
2023-02-19T03:38:07.785Z,69.33
2023-02-19T03:40:44.941Z,69.44
2023-02-19T03:43:22.538Z,69.36
2023-02-19T03:46:01.751Z,69.55
2023-02-19T03:48:37.425Z,69.63
2023-02-19T03:51:18.039Z,69.85
2023-02-19T03:53:56.186Z,70.05
2023-02-19T03:56:32.798Z,70.08
2023-02-19T03:59:07.214Z,70.18
2023-02-19T04:01:43.528Z,70.17
2023-02-19T04:04:21.056Z,70.22
2023-02-19T04:06:57.521Z,70.29
2023-02-19T04:09:35.576Z,70.34
2023-02-19T04:12:12.208Z,70.45
2023-02-19T04:14:48.796Z,70.59
2023-02-19T04:17:24.536Z,70.59
2023-02-19T04:20:00.351Z,70.68
2023-02-19T04:22:35.548Z,70.76
2023-02-19T04:25:10.420Z,70.80
2023-02-19T04:27:45.195Z,70.65
2023-02-19T04:30:18.859Z,70.67
2023-02-19T04:32:52.279Z,70.83
2023-02-19T04:35:25.366Z,70.82
2023-02-19T04:37:59.288Z,70.87
2023-02-19T04:40:32.878Z,70.87
2023-02-19T04:43:06.225Z,70.75
2023-02-19T04:45:41.109Z,70.69
2023-02-19T04:48:15.038Z,70.71
2023-02-19T04:50:48.429Z,70.66
2023-02-19T04:53:21.894Z,70.75
2023-02-19T04:55:55.366Z,70.72
2023-02-19T04:58:28.666Z,70.82
2023-02-19T05:01:02.000Z,70.85
2023-02-19T05:03:35.988Z,70.90
2023-02-19T05:06:12.058Z,70.88
2023-02-19T05:08:45.672Z,70.91
2023-02-19T05:11:19.154Z,70.77
2023-02-19T05:13:52.592Z,70.84
2023-02-19T05:16:26.906Z,70.81
2023-02-19T05:19:00.410Z,70.70
2023-02-19T05:21:34.028Z,70.71
2023-02-19T05:24:08.526Z,70.73
2023-02-19T05:26:44.553Z,70.74
2023-02-19T05:29:17.107Z,70.85
2023-02-19T05:31:50.781Z,70.91
2023-02-19T05:34:24.383Z,70.89
2023-02-19T05:36:58.982Z,70.99
2023-02-19T05:39:32.319Z,71.00
2023-02-19T05:42:08.365Z,70.89
2023-02-19T05:44:43.035Z,70.95
2023-02-19T05:47:17.803Z,70.79
2023-02-19T05:49:51.254Z,70.91
2023-02-19T05:52:25.134Z,71.09
2023-02-19T05:54:58.711Z,71.12
2023-02-19T05:57:32.174Z,71.10
2023-02-19T06:00:07.692Z,70.98
2023-02-19T06:02:42.744Z,70.85
2023-02-19T06:05:17.219Z,70.91
2023-02-19T06:07:51.493Z,70.88
2023-02-19T06:10:24.947Z,70.86
2023-02-19T06:12:58.323Z,70.73
2023-02-19T06:15:31.731Z,70.60
2023-02-19T06:18:06.011Z,70.49
2023-02-19T06:20:39.301Z,70.58
2023-02-19T06:23:12.663Z,70.53
2023-02-19T06:25:46.122Z,70.19
2023-02-19T06:28:19.745Z,70.04
2023-02-19T06:30:53.504Z,70.20
2023-02-19T06:33:27.590Z,70.26
2023-02-19T06:36:02.824Z,69.84
2023-02-19T06:38:36.332Z,69.95
2023-02-19T06:41:11.314Z,70.09
2023-02-19T06:43:44.960Z,69.99
2023-02-19T06:46:18.603Z,69.72
2023-02-19T06:48:52.808Z,70.01
2023-02-19T06:51:29.019Z,69.95
2023-02-19T06:54:03.311Z,70.07
2023-02-19T06:56:39.596Z,69.71
2023-02-19T06:59:17.022Z,69.52
2023-02-19T07:01:50.763Z,69.49
2023-02-19T07:04:24.611Z,69.52
2023-02-19T07:06:59.970Z,69.28
2023-02-19T07:09:33.693Z,68.72
2023-02-19T07:12:08.535Z,68.88
2023-02-19T07:14:42.134Z,68.72
2023-02-19T07:17:15.762Z,68.61
2023-02-19T07:19:48.807Z,68.86
2023-02-19T07:22:23.309Z,68.46
2023-02-19T07:24:56.956Z,68.29
2023-02-19T07:27:30.552Z,68.46
2023-02-19T07:30:03.859Z,67.85
2023-02-19T07:32:37.323Z,67.77
2023-02-19T07:35:11.498Z,67.62
2023-02-19T07:37:44.975Z,67.31
2023-02-19T07:40:18.774Z,67.06
2023-02-19T07:42:52.109Z,67.10
2023-02-19T07:45:25.594Z,67.37
2023-02-19T07:47:58.960Z,67.32
2023-02-19T07:50:32.818Z,67.45
2023-02-19T07:53:06.205Z,67.30
2023-02-19T07:55:39.705Z,67.22
2023-02-19T07:58:13.039Z,66.85
2023-02-19T08:00:46.910Z,67.19
2023-02-19T08:03:20.480Z,67.14
2023-02-19T08:05:55.163Z,67.40
2023-02-19T08:08:48.720Z,67.29
2023-02-19T08:11:39.651Z,67.24
2023-02-19T08:14:13.215Z,67.79
2023-02-19T08:16:52.528Z,67.86
2023-02-19T08:19:26.350Z,67.98
2023-02-19T08:22:00.039Z,68.00
2023-02-19T08:24:34.033Z,67.83
2023-02-19T08:27:07.578Z,67.83
2023-02-19T08:29:41.075Z,67.94
2023-02-19T08:32:14.699Z,67.88
2023-02-19T08:34:47.992Z,67.77
2023-02-19T08:37:21.359Z,67.85
2023-02-19T08:39:54.797Z,67.75
2023-02-19T08:42:29.433Z,67.46
2023-02-19T08:45:02.765Z,67.56
2023-02-19T08:47:38.337Z,67.25
2023-02-19T08:50:12.745Z,67.12
2023-02-19T08:52:46.083Z,66.82
2023-02-19T08:55:19.934Z,67.06
2023-02-19T08:57:53.605Z,67.41
2023-02-19T09:00:27.526Z,67.48
2023-02-19T09:03:01.778Z,67.33
2023-02-19T09:05:35.293Z,66.82
2023-02-19T09:08:08.522Z,66.86
2023-02-19T09:10:42.122Z,66.83
2023-02-19T09:13:17.990Z,66.47
2023-02-19T09:15:51.733Z,66.05
2023-02-19T09:18:25.749Z,65.36
2023-02-19T09:21:02.772Z,66.11
2023-02-19T09:23:37.550Z,66.17
2023-02-19T09:26:13.662Z,66.40
2023-02-19T09:28:47.891Z,66.40
2023-02-19T09:31:21.364Z,66.34
2023-02-19T09:33:54.853Z,66.65
2023-02-19T09:36:28.287Z,66.76
2023-02-19T09:39:02.125Z,66.97
2023-02-19T09:41:38.405Z,66.61
2023-02-19T09:44:14.675Z,66.47
2023-02-19T09:46:50.467Z,67.08
2023-02-19T09:49:26.973Z,67.05
2023-02-19T09:52:04.314Z,66.65
2023-02-19T09:54:39.632Z,66.95
2023-02-19T09:57:16.176Z,66.97
2023-02-19T09:59:52.807Z,66.89
2023-02-19T10:02:27.749Z,67.18
2023-02-19T10:05:02.772Z,66.96
2023-02-19T10:07:40.580Z,66.92
2023-02-19T10:10:34.719Z,67.14
2023-02-19T10:13:21.828Z,67.24
2023-02-19T10:15:58.883Z,67.28
2023-02-19T10:18:35.496Z,67.75
2023-02-19T10:21:10.055Z,67.68
2023-02-19T10:23:45.415Z,67.72
2023-02-19T10:26:18.943Z,67.62
2023-02-19T10:28:54.305Z,67.15
2023-02-19T10:31:28.215Z,67.05
2023-02-19T10:34:03.647Z,67.20
2023-02-19T10:36:39.779Z,67.21
2023-02-19T10:42:22.734Z,67.03
2023-02-19T10:45:01.418Z,67.02
2023-02-19T10:47:36.102Z,67.26
2023-02-19T10:50:19.780Z,67.59
2023-02-19T10:52:57.335Z,67.65
2023-02-19T10:55:37.732Z,67.59
2023-02-19T10:58:28.726Z,67.70
2023-02-19T11:01:15.134Z,67.95
2023-02-19T11:03:49.943Z,67.83
2023-02-19T11:06:26.009Z,67.23
2023-02-19T11:09:02.199Z,66.86
2023-02-19T11:11:38.442Z,66.52
2023-02-19T11:14:19.849Z,66.06
2023-02-19T11:16:56.954Z,66.66
2023-02-19T11:19:37.975Z,66.36
2023-02-19T11:22:31.906Z,66.54
2023-02-19T11:25:09.906Z,66.23
2023-02-19T11:27:58.621Z,66.17
2023-02-19T11:30:43.376Z,65.42
2023-02-19T11:33:28.568Z,65.09
2023-02-19T11:36:20.382Z,65.63
2023-02-19T11:38:54.098Z,65.93
2023-02-19T11:41:54.513Z,65.93
2023-02-19T11:44:34.347Z,65.85
2023-02-19T11:47:18.698Z,66.00
2023-02-19T11:49:55.070Z,66.03
2023-02-19T11:52:32.634Z,66.18
2023-02-19T11:55:11.458Z,66.32
2023-02-19T11:57:48.817Z,66.40
2023-02-19T12:00:28.456Z,66.27
2023-02-19T12:03:31.226Z,66.21
2023-02-19T12:06:16.328Z,66.54
2023-02-19T12:09:35.623Z,66.55
2023-02-19T12:12:17.326Z,66.99
2023-02-19T12:15:45.706Z,67.09
2023-02-19T12:18:33.968Z,67.35
2023-02-19T12:21:16.085Z,67.58
2023-02-19T12:24:04.503Z,67.39
2023-02-19T12:26:41.445Z,67.55
2023-02-19T12:29:22.881Z,67.69
2023-02-19T12:32:31.661Z,67.39
2023-02-19T12:35:30.916Z,67.11
2023-02-19T12:38:10.904Z,67.23
2023-02-19T12:40:51.713Z,67.53
2023-02-19T12:43:26.362Z,67.63
2023-02-19T12:46:03.069Z,67.90
2023-02-19T12:48:39.905Z,68.07
2023-02-19T12:51:16.286Z,68.14
2023-02-19T12:53:52.249Z,68.21
2023-02-19T12:56:28.748Z,68.39
2023-02-19T12:59:05.246Z,68.50
2023-02-19T13:01:42.612Z,68.65
2023-02-19T13:04:23.398Z,68.67
2023-02-19T13:07:00.445Z,68.60
2023-02-19T13:09:37.450Z,68.66
2023-02-19T13:12:15.498Z,68.84
2023-02-19T13:14:52.473Z,68.91
2023-02-19T13:17:30.054Z,69.13
2023-02-19T13:20:03.548Z,69.21
2023-02-19T13:22:58.191Z,69.48
2023-02-19T13:25:35.352Z,69.77
2023-02-19T13:28:24.467Z,70.08
2023-02-19T13:31:09.416Z,70.15
2023-02-19T13:33:50.977Z,70.43
2023-02-19T13:36:27.427Z,70.47
2023-02-19T13:39:03.870Z,70.49
2023-02-19T13:41:41.070Z,70.30
2023-02-19T13:44:20.885Z,70.31
2023-02-19T13:46:57.057Z,70.31
2023-02-19T13:49:50.612Z,70.39
2023-02-19T13:52:41.812Z,70.48
2023-02-19T13:55:51.602Z,70.50
2023-02-19T13:59:00.578Z,70.50
2023-02-19T14:02:18.991Z,70.53
2023-02-19T14:04:59.489Z,70.81
2023-02-19T14:07:55.386Z,70.86
2023-02-19T14:11:06.100Z,70.93
2023-02-19T14:14:28.495Z,70.96
2023-02-19T14:17:08.620Z,70.89
2023-02-19T14:19:54.769Z,71.02
2023-02-19T14:22:51.480Z,71.03
2023-02-19T14:25:47.015Z,71.07
2023-02-19T14:28:44.752Z,71.20
2023-02-19T14:31:31.162Z,71.31
2023-02-19T14:34:07.561Z,71.43
2023-02-19T14:36:49.231Z,71.44
2023-02-19T14:39:24.986Z,71.54
2023-02-19T14:42:01.564Z,71.55
2023-02-19T14:44:40.168Z,71.55
2023-02-19T14:47:18.892Z,71.47
2023-02-19T14:49:56.644Z,71.56
2023-02-19T14:52:33.185Z,71.53
2023-02-19T14:55:09.952Z,71.60
2023-02-19T14:57:46.502Z,71.55
2023-02-19T15:00:28.860Z,71.51
2023-02-19T15:03:02.928Z,71.58
2023-02-19T15:05:38.943Z,71.73
2023-02-19T15:08:15.472Z,71.72
2023-02-19T15:10:49.533Z,71.64
2023-02-19T15:13:25.811Z,71.64
2023-02-19T15:16:00.278Z,71.66
2023-02-19T15:18:36.874Z,71.58
2023-02-19T15:21:15.582Z,71.61
2023-02-19T15:23:49.564Z,71.65
2023-02-19T15:26:25.696Z,71.68
2023-02-19T15:29:04.874Z,71.72
2023-02-19T15:31:40.299Z,71.73
2023-02-19T15:34:19.478Z,71.69
2023-02-19T15:36:55.471Z,71.81
2023-02-19T15:39:32.796Z,71.66
2023-02-19T15:42:09.390Z,71.65
2023-02-19T15:44:46.849Z,71.68
2023-02-19T15:47:25.018Z,71.77
2023-02-19T15:50:02.548Z,71.86
2023-02-19T15:52:38.529Z,71.83
2023-02-19T15:55:23.459Z,71.71
2023-02-19T15:57:59.655Z,71.82
2023-02-19T16:00:37.630Z,71.82
2023-02-19T16:03:16.714Z,71.93
2023-02-19T16:06:00.480Z,71.89
2023-02-19T16:08:36.013Z,71.47
2023-02-19T16:11:22.729Z,71.53
2023-02-19T16:14:15.438Z,71.50
2023-02-19T16:16:51.406Z,71.74
2023-02-19T16:19:28.599Z,71.63
2023-02-19T16:22:02.410Z,71.38
2023-02-19T16:24:38.530Z,71.56
2023-02-19T16:27:12.433Z,71.51
2023-02-19T16:32:29.798Z,71.47
2023-02-19T16:35:03.456Z,71.38
2023-02-19T16:37:40.842Z,71.17
2023-02-19T16:40:56.609Z,71.05
2023-02-19T16:43:34.343Z,71.17
2023-02-19T16:46:11.723Z,71.14
2023-02-19T16:48:45.590Z,71.03
2023-02-19T16:51:23.430Z,71.11
2023-02-19T16:54:00.145Z,71.15
2023-02-19T16:56:33.815Z,70.95
2023-02-19T16:59:08.180Z,70.87
2023-02-19T17:01:42.285Z,70.86
2023-02-19T17:04:16.458Z,70.76
2023-02-19T17:06:50.178Z,71.00
2023-02-19T17:09:23.919Z,70.86
2023-02-19T17:11:57.630Z,71.02
2023-02-19T17:14:31.211Z,71.14
2023-02-19T17:17:05.390Z,71.22
2023-02-19T17:19:40.285Z,71.25
2023-02-19T17:22:16.449Z,71.16
2023-02-19T17:24:50.041Z,71.18
2023-02-19T17:27:23.762Z,71.25
2023-02-19T17:29:57.215Z,71.42
2023-02-19T17:32:30.482Z,71.46
2023-02-19T17:35:03.976Z,71.57
2023-02-19T17:37:37.594Z,71.58
2023-02-19T17:40:31.869Z,71.61
2023-02-19T17:42:56.489Z,71.69
2023-02-19T17:45:30.294Z,71.81
2023-02-19T17:48:04.138Z,71.90
2023-02-19T17:50:38.946Z,71.83
2023-02-19T17:53:12.617Z,71.86
2023-02-19T17:55:46.345Z,71.90
2023-02-19T17:58:19.912Z,72.02
2023-02-19T18:00:53.925Z,71.99
2023-02-19T18:03:27.819Z,72.15
2023-02-19T18:06:01.548Z,72.17
2023-02-19T18:08:35.114Z,72.15
2023-02-19T18:11:09.489Z,72.18
2023-02-19T18:13:43.015Z,72.24
2023-02-19T18:16:17.387Z,72.30
2023-02-19T18:18:51.154Z,72.31
2023-02-19T18:21:26.007Z,72.36
2023-02-19T18:23:59.546Z,72.30
2023-02-19T18:26:33.773Z,72.41
2023-02-19T18:29:07.999Z,72.45
2023-02-19T18:31:41.833Z,72.33
2023-02-19T18:34:20.247Z,72.39
2023-02-19T18:36:53.742Z,72.48
2023-02-19T18:39:27.137Z,72.50
2023-02-19T18:42:01.221Z,72.58
2023-02-19T18:44:34.668Z,72.61
2023-02-19T18:47:08.751Z,72.62
2023-02-19T18:49:43.772Z,72.63
2023-02-19T18:52:19.428Z,72.60
2023-02-19T18:54:53.596Z,72.69
2023-02-19T18:57:27.693Z,72.68
2023-02-19T19:00:01.095Z,72.58
2023-02-19T19:02:48.405Z,72.62
2023-02-19T19:05:11.891Z,72.62
2023-02-19T19:07:45.490Z,72.60
2023-02-19T19:10:20.279Z,72.59
2023-02-19T19:12:54.704Z,72.64
2023-02-19T19:15:29.861Z,72.58
2023-02-19T19:18:03.650Z,72.65
2023-02-19T19:20:37.236Z,72.71
2023-02-19T19:23:10.728Z,72.62
2023-02-19T19:25:44.195Z,72.50
2023-02-19T19:28:17.759Z,72.43
2023-02-19T19:30:51.228Z,72.35
2023-02-19T19:33:27.978Z,72.43
2023-02-19T19:36:00.874Z,72.36
2023-02-19T19:38:34.548Z,72.39
2023-02-19T19:41:08.729Z,72.34
2023-02-19T19:43:41.760Z,72.24
2023-02-19T19:46:19.330Z,72.10
2023-02-19T19:48:54.096Z,71.95
2023-02-19T19:51:33.340Z,71.85
2023-02-19T19:54:10.846Z,71.68
2023-02-19T19:56:45.614Z,71.61
2023-02-19T19:59:19.856Z,71.44
2023-02-19T20:01:57.229Z,71.46
2023-02-19T20:04:31.823Z,71.52
2023-02-19T20:07:05.550Z,71.46
2023-02-19T20:09:38.971Z,71.36
2023-02-19T20:12:13.162Z,71.34
2023-02-19T20:14:48.053Z,71.43
2023-02-19T20:17:24.954Z,71.46
2023-02-19T20:19:58.638Z,71.43
2023-02-19T20:22:32.261Z,71.37
2023-02-19T20:25:06.357Z,71.30
2023-02-19T20:27:40.130Z,71.28
2023-02-19T20:30:17.787Z,71.28
2023-02-19T20:32:51.735Z,71.24
2023-02-19T20:35:28.081Z,71.27
2023-02-19T20:38:01.680Z,71.30
2023-02-19T20:40:36.329Z,71.39
2023-02-19T20:43:09.991Z,71.42
2023-02-19T20:45:45.730Z,71.41
2023-02-19T20:48:20.086Z,71.50
2023-02-19T20:50:55.919Z,71.64
2023-02-19T20:53:30.188Z,71.63
2023-02-19T20:56:03.746Z,71.70
2023-02-19T20:58:37.524Z,71.76
2023-02-19T21:01:11.952Z,71.87
2023-02-19T21:03:45.499Z,71.86
2023-02-19T21:06:18.831Z,71.89
2023-02-19T21:08:52.610Z,71.94
2023-02-19T21:11:26.389Z,71.92
2023-02-19T21:14:00.083Z,72.01
2023-02-19T21:16:34.629Z,72.11
2023-02-19T21:19:08.107Z,72.20
2023-02-19T21:21:41.680Z,72.24
2023-02-19T21:24:16.669Z,72.27
2023-02-19T21:26:52.471Z,72.37
2023-02-19T21:29:26.179Z,72.42
2023-02-19T21:32:00.190Z,72.55
2023-02-19T21:34:33.619Z,72.55
2023-02-19T21:37:07.251Z,72.57
2023-02-19T21:39:42.408Z,72.56
2023-02-19T21:42:16.174Z,72.46
2023-02-19T21:44:49.604Z,72.32
2023-02-19T21:47:22.873Z,72.29
2023-02-19T21:49:56.667Z,72.26
2023-02-19T21:52:31.267Z,72.18
2023-02-19T21:55:04.527Z,72.05
2023-02-19T21:57:37.893Z,72.02
2023-02-19T22:00:13.331Z,72.06
2023-02-19T22:02:46.749Z,71.95
2023-02-19T22:05:20.201Z,71.87
2023-02-19T22:07:54.009Z,71.83
2023-02-19T22:10:27.531Z,71.75
2023-02-19T22:13:01.035Z,71.69
2023-02-19T22:15:34.613Z,71.61
2023-02-19T22:18:08.544Z,71.52
2023-02-19T22:20:42.272Z,71.47
2023-02-19T22:23:15.736Z,71.36
2023-02-19T22:25:49.282Z,71.24
2023-02-19T22:28:23.168Z,71.27
2023-02-19T22:30:56.621Z,71.39
2023-02-19T22:33:30.131Z,71.50
2023-02-19T22:36:04.086Z,71.57
2023-02-19T22:38:37.549Z,71.61
2023-02-19T22:41:11.229Z,71.75
2023-02-19T22:43:44.641Z,71.79
2023-02-19T22:46:20.615Z,71.85
2023-02-19T22:48:54.253Z,71.82
2023-02-19T22:51:28.044Z,71.80
2023-02-19T22:54:02.359Z,71.74
2023-02-19T22:56:36.179Z,71.64
2023-02-19T22:59:09.728Z,71.45
2023-02-19T23:01:43.040Z,71.33
2023-02-19T23:04:16.783Z,71.26
2023-02-19T23:06:50.674Z,71.24
2023-02-19T23:09:26.507Z,71.24
2023-02-19T23:12:05.969Z,71.19
2023-02-19T23:14:39.459Z,71.11
2023-02-19T23:17:13.285Z,71.03
2023-02-19T23:19:47.324Z,71.02
2023-02-19T23:22:20.909Z,71.14
2023-02-19T23:24:54.604Z,71.18
2023-02-19T23:27:28.683Z,71.17
2023-02-19T23:30:02.029Z,71.15
2023-02-19T23:32:35.485Z,71.11
2023-02-19T23:35:09.382Z,71.07
2023-02-19T23:37:42.912Z,71.00
2023-02-19T23:40:17.303Z,70.95
2023-02-19T23:42:52.283Z,70.96
2023-02-19T23:45:25.821Z,70.91
2023-02-19T23:47:59.281Z,70.84
2023-02-19T23:50:32.845Z,70.83
2023-02-19T23:53:06.712Z,70.81
2023-02-19T23:55:41.707Z,70.83
2023-02-19T23:58:15.479Z,70.78
